createdAt,value
2019-05-20T06:35:17.851Z,4.58
2019-05-20T06:37:47.880Z,4.42
2019-05-20T06:40:35.533Z,3.85
2019-05-20T06:43:03.843Z,3.22
2019-05-20T06:45:32.163Z,3.70
2019-05-20T06:48:00.533Z,3.50
2019-05-20T06:50:29.701Z,4.22
2019-05-20T06:52:58.269Z,4.00
2019-05-20T06:55:26.634Z,3.58
2019-05-20T06:57:54.941Z,4.17
2019-05-20T07:00:33.293Z,3.87
2019-05-20T07:03:01.739Z,3.75
2019-05-20T07:05:30.097Z,4.15
2019-05-20T07:08:01.288Z,3.47
2019-05-20T07:10:28.849Z,3.85
2019-05-20T07:12:57.233Z,3.90
2019-05-20T07:15:50.475Z,4.00
2019-05-20T07:18:18.837Z,3.75
2019-05-20T07:20:47.225Z,3.60
2019-05-20T07:23:15.597Z,3.87
2019-05-20T07:25:43.873Z,3.72
2019-05-20T07:28:12.185Z,3.10
2019-05-20T07:30:40.525Z,3.90
2019-05-20T07:33:08.952Z,4.60
2019-05-20T07:35:37.327Z,6.37
2019-05-20T07:38:05.700Z,4.92
2019-05-20T07:40:34.074Z,3.75
2019-05-20T07:43:02.468Z,3.20
2019-05-20T07:45:32.361Z,3.00
2019-05-20T07:48:00.814Z,3.10
2019-05-20T07:50:48.446Z,3.02
2019-05-20T07:53:17.010Z,3.00
2019-05-20T07:55:47.031Z,2.80
2019-05-20T07:58:16.512Z,2.50
2019-05-20T08:00:44.859Z,2.92
2019-05-20T08:03:13.225Z,3.47
2019-05-20T08:05:41.584Z,3.65
2019-05-20T08:08:09.953Z,3.42
2019-05-20T08:10:38.251Z,3.45
2019-05-20T08:13:06.568Z,3.08
2019-05-20T08:15:35.871Z,3.47
2019-05-20T08:18:04.430Z,3.40
2019-05-20T08:20:32.809Z,3.27
2019-05-20T08:23:08.458Z,2.50
2019-05-20T08:25:36.805Z,2.95
2019-05-20T08:28:05.170Z,2.67
2019-05-20T08:30:34.846Z,2.42
2019-05-20T08:33:03.701Z,2.55
2019-05-20T08:35:32.063Z,2.50
2019-05-20T08:38:00.422Z,2.80
2019-05-20T08:40:28.741Z,2.10
2019-05-20T08:42:57.081Z,2.37
2019-05-20T08:45:25.367Z,2.62
2019-05-20T08:47:53.665Z,2.65
2019-05-20T08:50:21.989Z,2.65
2019-05-20T08:53:09.585Z,2.40
2019-05-20T08:55:37.817Z,2.40
2019-05-20T08:58:06.126Z,2.87
2019-05-20T09:00:34.456Z,2.98
2019-05-20T09:03:02.729Z,2.87
2019-05-20T09:05:31.012Z,3.27
2019-05-20T09:08:03.615Z,2.95
2019-05-20T09:10:29.293Z,2.95
2019-05-20T09:12:57.591Z,2.70
2019-05-20T09:15:25.965Z,2.75
2019-05-20T09:17:54.373Z,2.62
2019-05-20T09:20:22.867Z,2.77
2019-05-20T09:22:51.370Z,3.05
2019-05-20T09:25:21.304Z,2.90
2019-05-20T09:27:49.609Z,3.00
2019-05-20T09:30:18.292Z,3.17
2019-05-20T09:32:46.595Z,3.60
2019-05-20T09:35:14.915Z,3.10
2019-05-20T09:37:43.215Z,3.20
2019-05-20T09:40:11.525Z,2.92
2019-05-20T09:42:41.111Z,3.12
2019-05-20T09:45:09.810Z,2.98
2019-05-20T09:47:38.407Z,3.40
2019-05-20T09:50:07.038Z,3.50
2019-05-20T09:52:54.628Z,2.72
2019-05-20T09:55:22.965Z,3.15
2019-05-20T09:57:51.190Z,3.17
2019-05-20T10:00:19.505Z,3.02
2019-05-20T10:02:47.832Z,3.33
2019-05-20T10:05:16.140Z,3.00
2019-05-20T10:07:44.392Z,3.15
2019-05-20T10:10:12.785Z,3.00
2019-05-20T10:12:46.540Z,3.17
2019-05-20T10:15:10.985Z,2.77
2019-05-20T10:17:39.391Z,2.50
2019-05-20T10:20:08.026Z,3.47
2019-05-20T10:22:36.344Z,2.58
2019-05-20T10:25:05.354Z,2.58
2019-05-20T10:27:33.658Z,2.25
2019-05-20T10:30:05.953Z,2.77
2019-05-20T10:32:34.271Z,2.42
2019-05-20T10:35:02.798Z,2.40
2019-05-20T10:37:31.118Z,2.58
2019-05-20T10:39:59.448Z,2.50
2019-05-20T10:42:27.771Z,2.40
2019-05-20T10:44:56.019Z,2.22
2019-05-20T10:47:24.330Z,2.50
2019-05-20T10:49:52.575Z,2.20
2019-05-20T10:52:20.818Z,2.42
2019-05-20T10:54:49.150Z,2.50
2019-05-20T10:57:17.474Z,2.17
2019-05-20T10:59:45.791Z,2.10
2019-05-20T11:02:14.102Z,1.92
2019-05-20T11:04:42.412Z,2.20
2019-05-20T11:07:10.735Z,2.08
2019-05-20T11:09:38.990Z,1.87
2019-05-20T11:12:07.238Z,2.00
2019-05-20T11:14:35.565Z,2.30
2019-05-20T11:17:03.887Z,2.22
2019-05-20T11:19:32.298Z,2.00
2019-05-20T11:22:00.606Z,1.98
2019-05-20T11:24:28.842Z,1.70
2019-05-20T11:26:57.158Z,2.22
2019-05-20T11:29:25.466Z,1.95
2019-05-20T11:31:53.702Z,2.05
2019-05-20T11:34:22.017Z,1.80
2019-05-20T11:36:50.336Z,2.02
2019-05-20T11:39:32.463Z,2.30
2019-05-20T11:41:53.346Z,2.08
2019-05-20T11:44:18.559Z,2.20
2019-05-20T11:46:55.633Z,2.40
2019-05-20T11:49:23.879Z,1.98
2019-05-20T11:51:52.119Z,2.30
2019-05-20T11:54:20.421Z,2.40
2019-05-20T11:56:48.682Z,2.17
2019-05-20T11:59:16.989Z,2.37
2019-05-20T12:01:45.302Z,2.20
2019-05-20T12:04:13.613Z,2.00
2019-05-20T12:06:41.921Z,2.40
2019-05-20T12:09:10.262Z,2.02
2019-05-20T12:11:38.578Z,1.80
2019-05-20T12:14:06.806Z,2.08
2019-05-20T12:16:35.042Z,2.17
2019-05-20T12:19:04.251Z,1.95
2019-05-20T12:21:32.588Z,1.87
2019-05-20T12:24:00.897Z,1.92
2019-05-20T12:26:29.207Z,1.67
2019-05-20T12:28:57.539Z,1.82
2019-05-20T12:31:25.752Z,1.72
2019-05-20T12:33:53.987Z,2.10
2019-05-20T12:36:22.226Z,1.87
2019-05-20T12:38:50.486Z,1.60
2019-05-20T12:41:18.734Z,1.62
2019-05-20T12:43:47.129Z,1.80
2019-05-20T12:46:15.458Z,1.95
2019-05-20T12:48:43.843Z,1.92
2019-05-20T12:51:14.536Z,1.70
2019-05-20T12:53:42.182Z,1.90
2019-05-20T12:56:10.431Z,1.55
2019-05-20T12:58:38.701Z,1.50
2019-05-20T13:01:06.985Z,2.00
2019-05-20T13:03:35.257Z,1.95
2019-05-20T13:06:03.567Z,1.98
2019-05-20T13:08:31.883Z,2.30
2019-05-20T13:11:00.188Z,2.05
2019-05-20T13:13:28.499Z,2.65
2019-05-20T13:15:56.731Z,1.98
2019-05-20T13:18:24.987Z,2.10
2019-05-20T13:20:53.244Z,2.27
2019-05-20T13:23:21.455Z,2.45
2019-05-20T13:25:49.758Z,2.40
2019-05-20T13:28:18.066Z,2.08
2019-05-20T13:30:46.585Z,2.30
2019-05-20T13:33:14.822Z,2.10
2019-05-20T13:35:43.085Z,2.10
2019-05-20T13:38:11.313Z,1.80
2019-05-20T13:40:46.634Z,1.92
2019-05-20T13:43:28.980Z,1.70
2019-05-20T13:45:57.217Z,1.92
2019-05-20T13:48:25.461Z,1.98
2019-05-20T13:50:53.719Z,1.82
2019-05-20T13:53:22.039Z,2.17
2019-05-20T13:55:50.352Z,1.90
2019-05-20T13:58:18.782Z,1.92
2019-05-20T14:00:47.118Z,1.82
2019-05-20T14:03:15.505Z,2.17
2019-05-20T14:05:43.754Z,1.98
2019-05-20T14:08:12.072Z,2.15
2019-05-20T14:11:04.756Z,1.90
2019-05-20T14:13:31.250Z,2.00
2019-05-20T14:16:00.330Z,2.20
2019-05-20T14:18:28.557Z,2.30
2019-05-20T14:20:57.829Z,2.37
2019-05-20T14:23:28.006Z,2.52
2019-05-20T14:25:56.234Z,2.12
2019-05-20T14:28:24.687Z,2.80
2019-05-20T14:30:52.970Z,2.30
2019-05-20T14:33:21.342Z,2.42
2019-05-20T14:35:49.672Z,6.62
2019-05-20T14:38:20.972Z,2.40
2019-05-20T14:40:49.396Z,2.15
2019-05-20T14:43:17.644Z,2.30
2019-05-20T14:45:46.150Z,2.02
2019-05-20T14:48:14.574Z,2.77
2019-05-20T14:50:42.849Z,2.00
2019-05-20T14:53:11.150Z,2.30
2019-05-20T14:55:42.581Z,2.40
2019-05-20T14:58:09.514Z,2.15
2019-05-20T15:00:37.826Z,2.33
2019-05-20T15:03:06.081Z,2.65
2019-05-20T15:05:34.834Z,2.65
2019-05-20T15:08:03.433Z,2.75
2019-05-20T15:10:31.669Z,2.67
2019-05-20T15:12:59.973Z,2.40
2019-05-20T15:15:28.330Z,2.55
2019-05-20T15:17:56.549Z,2.40
2019-05-20T15:20:24.856Z,2.80
2019-05-20T15:22:53.105Z,2.87
2019-05-20T15:25:21.483Z,2.45
2019-05-20T15:27:50.003Z,2.30
2019-05-20T15:30:18.909Z,2.67
2019-05-20T15:32:47.155Z,2.60
2019-05-20T15:35:15.469Z,2.55
2019-05-20T15:37:43.798Z,2.30
2019-05-20T15:40:12.229Z,2.33
2019-05-20T15:42:40.525Z,2.72
2019-05-20T15:45:09.439Z,2.40
2019-05-20T15:47:37.784Z,2.62
2019-05-20T15:50:08.536Z,2.47
2019-05-20T15:52:37.068Z,2.60
2019-05-20T15:55:05.654Z,2.47
2019-05-20T15:57:33.880Z,2.95
2019-05-20T16:00:02.191Z,2.47
2019-05-20T16:02:30.508Z,2.67
2019-05-20T16:05:18.100Z,2.27
2019-05-20T16:07:46.421Z,2.80
2019-05-20T16:10:14.718Z,2.47
2019-05-20T16:12:42.970Z,2.22
2019-05-20T16:15:12.006Z,2.30
2019-05-20T16:17:40.185Z,2.35
2019-05-20T16:20:08.611Z,2.27
2019-05-20T16:22:37.747Z,2.17
2019-05-20T16:25:06.449Z,2.27
2019-05-20T16:27:35.063Z,2.42
2019-05-20T16:30:07.229Z,2.15
2019-05-20T16:32:34.686Z,2.72
2019-05-20T16:35:03.137Z,2.67
2019-05-20T16:37:31.462Z,2.37
2019-05-20T16:39:59.703Z,2.20
2019-05-20T16:42:27.993Z,2.20
2019-05-20T16:44:56.257Z,2.70
2019-05-20T16:47:24.591Z,2.70
2019-05-20T16:49:52.903Z,2.80
2019-05-20T16:52:21.234Z,3.45
2019-05-20T16:54:54.072Z,2.92
2019-05-20T16:57:22.373Z,2.92
2019-05-20T16:59:50.732Z,3.08
2019-05-20T17:02:19.085Z,2.65
2019-05-20T17:04:47.404Z,3.05
2019-05-20T17:07:15.712Z,2.85
2019-05-20T17:09:44.061Z,3.00
2019-05-20T17:12:12.332Z,2.62
2019-05-20T17:14:40.646Z,2.60
2019-05-20T17:17:08.976Z,2.65
2019-05-20T17:19:37.302Z,2.72
2019-05-20T17:22:24.905Z,3.00
2019-05-20T17:24:53.215Z,2.87
2019-05-20T17:27:21.450Z,2.92
2019-05-20T17:29:49.833Z,3.02
2019-05-20T17:32:18.150Z,3.08
2019-05-20T17:34:46.467Z,2.90
2019-05-20T17:37:14.778Z,2.77
2019-05-20T17:39:43.102Z,2.52
2019-05-20T17:42:11.339Z,2.62
2019-05-20T17:44:39.714Z,2.70
2019-05-20T17:47:08.033Z,2.72
2019-05-20T17:49:36.286Z,2.98
2019-05-20T17:52:04.670Z,2.83
2019-05-20T17:54:32.992Z,2.98
2019-05-20T17:57:01.323Z,3.17
2019-05-20T17:59:35.226Z,3.20
2019-05-20T18:02:05.169Z,2.77
2019-05-20T18:04:33.418Z,3.08
2019-05-20T18:07:01.746Z,3.42
2019-05-20T18:09:31.981Z,2.90
2019-05-20T18:12:00.235Z,3.10
2019-05-20T18:14:28.570Z,3.10
2019-05-20T18:16:58.448Z,3.10
2019-05-20T18:19:26.950Z,3.10
2019-05-20T18:21:55.378Z,3.50
2019-05-20T18:24:23.700Z,3.30
2019-05-20T18:26:52.049Z,3.58
2019-05-20T18:29:20.379Z,3.83
2019-05-20T18:31:48.804Z,3.12
2019-05-20T18:34:17.070Z,3.67
2019-05-20T18:36:45.397Z,3.25
2019-05-20T18:39:13.714Z,3.80
2019-05-20T18:41:41.974Z,3.30
2019-05-20T18:44:13.200Z,3.50
2019-05-20T18:46:40.213Z,3.15
2019-05-20T18:49:08.518Z,3.47
2019-05-20T18:51:36.824Z,3.45
2019-05-20T18:54:05.138Z,3.70
2019-05-20T18:56:33.537Z,3.42
2019-05-20T18:59:01.780Z,3.62
2019-05-20T19:01:30.103Z,3.90
2019-05-20T19:03:58.437Z,3.33
2019-05-20T19:06:26.734Z,3.50
2019-05-20T19:08:55.060Z,3.35
2019-05-20T19:11:23.382Z,3.50
2019-05-20T19:13:51.695Z,3.70
2019-05-20T19:16:22.913Z,3.55
2019-05-20T19:18:51.160Z,4.05
2019-05-20T19:21:19.489Z,3.77
2019-05-20T19:23:48.700Z,3.80
2019-05-20T19:26:24.907Z,3.90
2019-05-20T19:28:46.942Z,3.70
2019-05-20T19:31:15.177Z,3.72
2019-05-20T19:33:43.494Z,3.55
2019-05-20T19:36:11.883Z,3.30
2019-05-20T19:38:40.330Z,4.05
2019-05-20T19:41:08.715Z,3.42
2019-05-20T19:43:37.096Z,4.00
2019-05-20T19:46:05.355Z,3.77
2019-05-20T19:48:33.662Z,3.77
2019-05-20T19:51:02.005Z,3.33
2019-05-20T19:53:30.313Z,3.58
2019-05-20T19:55:58.564Z,3.25
2019-05-20T19:58:26.890Z,3.67
2019-05-20T20:00:56.837Z,3.30
2019-05-20T20:03:44.540Z,4.10
2019-05-20T20:06:12.841Z,3.75
2019-05-20T20:08:41.159Z,3.58
2019-05-20T20:11:09.515Z,3.62
2019-05-20T20:13:37.766Z,4.22
2019-05-20T20:16:06.077Z,3.50
2019-05-20T20:18:34.545Z,4.05
2019-05-20T20:21:02.782Z,3.62
2019-05-20T20:23:31.155Z,3.50
2019-05-20T20:25:59.409Z,3.87
2019-05-20T20:28:27.782Z,3.30
2019-05-20T20:30:56.164Z,3.92
2019-05-20T20:33:24.386Z,3.45
2019-05-20T20:35:52.638Z,4.10
2019-05-20T20:38:40.386Z,3.52
2019-05-20T20:41:08.668Z,3.70
2019-05-20T20:43:36.962Z,3.10
2019-05-20T20:46:05.401Z,3.75
2019-05-20T20:48:33.719Z,3.50
2019-05-20T20:51:02.171Z,3.12
2019-05-20T20:53:30.404Z,2.90
2019-05-20T20:55:58.650Z,3.70
2019-05-20T20:58:26.882Z,3.60
2019-05-20T21:00:55.194Z,3.85
2019-05-20T21:03:23.426Z,4.12
2019-05-20T21:05:51.817Z,4.28
2019-05-20T21:08:20.217Z,4.10
2019-05-20T21:10:48.460Z,4.30
2019-05-20T21:13:16.711Z,4.30
2019-05-20T21:15:44.950Z,4.78
2019-05-20T21:18:13.333Z,4.72
2019-05-20T21:20:41.619Z,5.03
2019-05-20T21:23:09.874Z,5.10
2019-05-20T21:25:39.039Z,4.72
2019-05-20T21:28:07.291Z,5.30
2019-05-20T21:30:35.525Z,5.10
2019-05-20T21:33:09.154Z,5.25
2019-05-20T21:35:33.763Z,5.30
2019-05-20T21:38:01.957Z,5.60
2019-05-20T21:40:30.266Z,5.25
2019-05-20T21:42:58.578Z,5.72
2019-05-20T21:45:26.894Z,5.95
2019-05-20T21:47:55.154Z,6.15
2019-05-20T21:50:23.398Z,6.87
2019-05-20T21:52:51.701Z,7.33
2019-05-20T21:55:20.162Z,7.80
2019-05-20T21:57:48.538Z,9.50
2019-05-20T22:00:18.529Z,8.65
2019-05-20T22:02:46.911Z,8.58
2019-05-20T22:05:15.284Z,8.10
2019-05-20T22:07:43.646Z,8.95
2019-05-20T22:10:12.120Z,8.98
2019-05-20T22:12:40.417Z,8.53
2019-05-20T22:15:08.781Z,10.60
2019-05-20T22:17:37.077Z,10.13
2019-05-20T22:20:05.926Z,10.75
2019-05-20T22:22:44.713Z,10.13
2019-05-20T22:25:13.666Z,11.45
2019-05-20T22:27:42.021Z,12.50
2019-05-20T22:30:10.394Z,11.95
2019-05-20T22:32:38.684Z,11.35
2019-05-20T22:35:07.050Z,11.63
2019-05-20T22:37:35.444Z,12.05
2019-05-20T22:40:04.809Z,10.43
2019-05-20T22:42:33.131Z,11.40
2019-05-20T22:45:01.423Z,11.45
2019-05-20T22:47:29.785Z,12.93
2019-05-20T22:49:58.151Z,11.30
2019-05-20T22:52:26.438Z,11.48
2019-05-20T22:54:54.745Z,10.80
2019-05-20T22:57:23.102Z,11.43
2019-05-20T22:59:51.482Z,13.62
2019-05-20T23:02:19.842Z,16.77
2019-05-20T23:04:48.208Z,15.25
2019-05-20T23:07:16.570Z,14.10
2019-05-20T23:09:44.940Z,12.63
2019-05-20T23:12:13.314Z,13.62
2019-05-20T23:14:41.680Z,13.03
2019-05-20T23:17:10.037Z,13.18
2019-05-20T23:19:38.339Z,13.70
2019-05-20T23:22:06.626Z,12.30
2019-05-20T23:24:35.069Z,10.75
2019-05-20T23:27:04.354Z,10.38
2019-05-20T23:29:32.725Z,11.00
2019-05-20T23:32:01.097Z,10.70
2019-05-20T23:34:29.449Z,10.15
2019-05-20T23:36:57.750Z,9.45
2019-05-20T23:39:26.150Z,9.18
2019-05-20T23:41:54.413Z,9.23
2019-05-20T23:44:22.953Z,9.50
2019-05-20T23:46:51.229Z,9.38
2019-05-20T23:49:19.593Z,8.60
2019-05-20T23:51:47.957Z,9.35
2019-05-20T23:54:16.337Z,8.88
2019-05-20T23:56:44.689Z,9.23
2019-05-20T23:59:12.992Z,8.93
